createdAt,value
2017-09-03T00:02:29.503Z,94.90
2017-09-03T00:04:59.212Z,95.20
2017-09-03T00:07:28.672Z,95.30
2017-09-03T00:09:58.407Z,95.50
2017-09-03T00:12:27.888Z,95.80
2017-09-03T00:14:57.604Z,95.80
2017-09-03T00:17:27.304Z,96.20
2017-09-03T00:19:56.990Z,96.40
2017-09-03T00:22:26.702Z,96.80
2017-09-03T00:24:56.192Z,97.00
2017-09-03T00:27:25.661Z,97.00
2017-09-03T00:29:55.390Z,97.30
2017-09-03T00:32:25.072Z,97.50
2017-09-03T00:34:54.753Z,97.40
2017-09-03T00:37:24.572Z,97.90
2017-09-03T00:39:55.541Z,97.80
2017-09-03T00:42:25.555Z,98.00
2017-09-03T00:44:55.256Z,98.20
2017-09-03T00:47:24.906Z,98.70
2017-09-03T00:49:54.632Z,98.90
2017-09-03T00:52:24.331Z,99.20
2017-09-03T00:54:53.308Z,99.10
2017-09-03T00:57:23.083Z,99.40
2017-09-03T00:59:52.802Z,99.70
2017-09-03T01:02:22.515Z,99.90
2017-09-03T01:04:52.181Z,99.90
2017-09-03T01:07:21.174Z,99.90
2017-09-03T01:09:50.910Z,99.90
2017-09-03T01:12:20.620Z,99.90
2017-09-03T01:14:50.276Z,99.90
2017-09-03T01:17:20.407Z,99.90
2017-09-03T01:19:49.852Z,99.90
2017-09-03T01:22:19.591Z,99.90
2017-09-03T01:24:49.261Z,99.90
2017-09-03T01:27:18.926Z,99.90
2017-09-03T01:29:48.596Z,99.90
2017-09-03T01:32:19.370Z,99.90
2017-09-03T01:34:49.057Z,99.90
2017-09-03T01:37:18.740Z,99.90
2017-09-03T01:39:48.786Z,99.90
2017-09-03T01:42:18.474Z,99.90
2017-09-03T01:44:47.939Z,99.90
2017-09-03T01:47:17.613Z,99.90
2017-09-03T01:49:47.292Z,99.90
2017-09-03T01:52:16.994Z,99.90
2017-09-03T01:54:46.668Z,99.90
2017-09-03T01:57:16.347Z,99.90
2017-09-03T01:59:45.886Z,99.90
2017-09-03T02:02:15.570Z,99.90
2017-09-03T02:04:45.065Z,99.90
2017-09-03T02:07:14.752Z,99.90
2017-09-03T02:12:16.318Z,99.90
2017-09-03T02:14:46.009Z,99.90
2017-09-03T02:17:15.678Z,99.90
2017-09-03T02:19:45.365Z,99.90
2017-09-03T02:22:15.026Z,99.90
2017-09-03T02:24:44.700Z,99.90
2017-09-03T02:27:14.365Z,99.90
2017-09-03T02:29:44.065Z,99.90
2017-09-03T02:32:13.741Z,99.90
2017-09-03T02:34:44.186Z,99.90
2017-09-03T02:37:13.854Z,99.90
2017-09-03T02:39:43.565Z,99.90
2017-09-03T02:42:13.257Z,99.90
2017-09-03T02:44:42.970Z,99.90
2017-09-03T02:47:12.637Z,99.90
2017-09-03T02:49:42.319Z,99.90
2017-09-03T02:52:11.998Z,99.90
2017-09-03T02:54:41.515Z,99.90
2017-09-03T02:57:25.429Z,99.90
2017-09-03T02:59:55.095Z,99.90
2017-09-03T03:02:24.795Z,99.90
2017-09-03T03:04:54.450Z,99.90
2017-09-03T03:07:23.920Z,99.90
2017-09-03T03:09:53.384Z,99.90
2017-09-03T03:12:22.879Z,99.90
2017-09-03T03:14:52.763Z,99.90
2017-09-03T03:17:22.460Z,99.90
2017-09-03T03:19:52.130Z,99.90
2017-09-03T03:22:21.806Z,99.90
2017-09-03T03:24:51.272Z,99.90
2017-09-03T03:27:20.980Z,99.90
2017-09-03T03:29:50.477Z,99.90
2017-09-03T03:32:20.157Z,99.90
2017-09-03T03:34:49.823Z,99.90
2017-09-03T03:37:19.480Z,99.90
2017-09-03T03:39:48.252Z,99.90
2017-09-03T03:42:17.721Z,99.90
2017-09-03T03:44:47.392Z,99.90
2017-09-03T03:47:17.091Z,99.90
2017-09-03T03:49:46.865Z,99.90
2017-09-03T03:52:16.551Z,99.90
2017-09-03T03:54:46.345Z,99.90
2017-09-03T03:57:16.026Z,99.90
2017-09-03T03:59:45.685Z,99.90
2017-09-03T04:02:15.615Z,99.90
2017-09-03T04:04:45.315Z,99.90
2017-09-03T04:07:15.005Z,99.90
2017-09-03T04:09:44.673Z,99.90
2017-09-03T04:12:14.370Z,99.90
2017-09-03T04:14:44.013Z,99.90
2017-09-03T04:17:13.538Z,99.90
2017-09-03T04:19:43.212Z,99.90
2017-09-03T04:22:12.900Z,99.90
2017-09-03T04:24:42.616Z,99.90
2017-09-03T04:27:12.299Z,99.90
2017-09-03T04:29:41.805Z,99.90
2017-09-03T04:32:11.463Z,99.90
2017-09-03T04:34:41.137Z,99.90
2017-09-03T04:37:10.799Z,99.90
2017-09-03T04:39:40.466Z,99.90
2017-09-03T04:42:10.125Z,99.90
2017-09-03T04:44:39.791Z,99.90
2017-09-03T04:47:09.519Z,99.90
2017-09-03T04:49:39.211Z,99.90
2017-09-03T04:52:08.967Z,99.90
2017-09-03T04:54:38.649Z,99.90
2017-09-03T04:57:08.319Z,99.90
2017-09-03T04:59:38.005Z,99.90
2017-09-03T05:02:07.684Z,99.90
2017-09-03T05:04:37.373Z,99.90
2017-09-03T05:07:07.009Z,99.90
2017-09-03T05:09:36.337Z,99.90
2017-09-03T05:12:05.797Z,99.90
2017-09-03T05:14:36.338Z,99.90
2017-09-03T05:17:05.781Z,99.90
2017-09-03T05:19:35.473Z,99.90
2017-09-03T05:22:05.169Z,99.90
2017-09-03T05:24:34.843Z,99.90
2017-09-03T05:27:04.504Z,99.90
2017-09-03T05:29:34.175Z,99.90
2017-09-03T05:32:03.846Z,99.90
2017-09-03T05:34:33.522Z,99.90
2017-09-03T05:37:02.999Z,99.90
2017-09-03T05:39:32.678Z,99.90
2017-09-03T05:42:02.347Z,99.90
2017-09-03T05:44:32.045Z,99.90
2017-09-03T05:47:02.489Z,99.90
2017-09-03T05:49:32.162Z,99.90
2017-09-03T05:52:01.849Z,99.90
2017-09-03T05:54:31.522Z,99.90
2017-09-03T05:57:01.017Z,99.90
2017-09-03T05:59:30.910Z,99.90
2017-09-03T06:02:00.387Z,99.90
2017-09-03T06:04:30.056Z,99.90
2017-09-03T06:07:00.030Z,99.90
2017-09-03T06:09:29.724Z,99.80
2017-09-03T06:11:59.419Z,99.60
2017-09-03T06:14:29.324Z,99.40
2017-09-03T06:16:59.011Z,99.20
2017-09-03T06:19:28.681Z,99.10
2017-09-03T06:21:58.382Z,99.10
2017-09-03T06:24:28.054Z,98.40
2017-09-03T06:26:57.738Z,98.50
2017-09-03T06:29:27.212Z,98.40
2017-09-03T06:31:56.936Z,98.20
2017-09-03T06:34:26.611Z,98.40
2017-09-03T06:36:55.970Z,98.40
2017-09-03T06:39:25.674Z,98.30
2017-09-03T06:41:55.433Z,98.00
2017-09-03T06:44:25.289Z,98.00
2017-09-03T06:46:55.776Z,97.10
2017-09-03T06:49:25.449Z,97.30
2017-09-03T06:51:55.888Z,96.50
2017-09-03T06:54:25.584Z,96.50
2017-09-03T06:56:55.238Z,96.60
2017-09-03T06:59:24.922Z,96.50
2017-09-03T07:01:54.568Z,96.50
2017-09-03T07:04:24.259Z,96.40
2017-09-03T07:06:53.971Z,96.40
2017-09-03T07:09:23.661Z,96.80
2017-09-03T07:11:53.137Z,96.80
2017-09-03T07:14:22.633Z,96.90
2017-09-03T07:16:52.290Z,96.60
2017-09-03T07:19:21.973Z,96.50
2017-09-03T07:21:51.659Z,96.40
2017-09-03T07:24:21.393Z,96.40
2017-09-03T07:26:51.062Z,96.40
2017-09-03T07:29:20.554Z,95.70
2017-09-03T07:31:50.234Z,95.30
2017-09-03T07:34:19.985Z,94.60
2017-09-03T07:36:49.647Z,94.40
2017-09-03T07:39:19.333Z,93.80
2017-09-03T07:41:48.754Z,93.80
2017-09-03T07:44:18.427Z,93.30
2017-09-03T07:46:47.827Z,92.90
2017-09-03T07:49:17.288Z,92.40
2017-09-03T07:51:47.030Z,92.60
2017-09-03T07:54:16.533Z,92.70
2017-09-03T07:56:46.217Z,93.20
2017-09-03T07:59:15.627Z,93.50
2017-09-03T08:01:45.301Z,93.20
2017-09-03T08:04:14.714Z,92.80
2017-09-03T08:06:44.116Z,91.50
2017-09-03T08:09:13.562Z,91.30
2017-09-03T08:11:42.994Z,90.40
2017-09-03T08:14:12.437Z,90.20
2017-09-03T08:16:41.826Z,89.00
2017-09-03T08:19:11.229Z,88.80
2017-09-03T08:21:40.629Z,88.30
2017-09-03T08:24:10.050Z,87.60
2017-09-03T08:26:39.434Z,86.60
2017-09-03T08:29:08.852Z,86.00
2017-09-03T08:31:38.345Z,84.80
2017-09-03T08:34:07.814Z,82.20
2017-09-03T08:36:37.033Z,81.40
2017-09-03T08:39:06.479Z,81.90
2017-09-03T08:41:35.878Z,81.00
2017-09-03T08:44:05.497Z,81.30
2017-09-03T08:46:34.923Z,80.90
2017-09-03T08:49:04.393Z,78.90
2017-09-03T08:51:33.793Z,77.20
2017-09-03T08:54:03.216Z,75.90
2017-09-03T08:56:32.665Z,77.20
2017-09-03T08:59:02.075Z,78.10
2017-09-03T09:01:31.496Z,76.90
2017-09-03T09:04:00.898Z,77.70
2017-09-03T09:06:30.304Z,79.00
2017-09-03T09:08:59.749Z,77.00
2017-09-03T09:11:29.158Z,75.30
2017-09-03T09:13:58.971Z,73.10
2017-09-03T09:16:28.356Z,73.20
2017-09-03T09:18:57.769Z,73.20
2017-09-03T09:21:26.982Z,71.60
2017-09-03T09:23:56.188Z,70.80
2017-09-03T09:26:25.414Z,70.30
2017-09-03T09:28:54.629Z,71.20
2017-09-03T09:31:23.855Z,72.80
2017-09-03T09:33:53.246Z,75.20
2017-09-03T09:36:22.668Z,74.90
2017-09-03T09:38:52.162Z,72.60
2017-09-03T09:41:21.570Z,74.50
2017-09-03T09:43:50.991Z,76.50
2017-09-03T09:46:20.201Z,76.40
2017-09-03T09:48:49.424Z,76.40
2017-09-03T09:51:18.698Z,75.00
2017-09-03T09:53:47.914Z,73.30
2017-09-03T09:56:27.657Z,73.80
2017-09-03T09:58:56.675Z,71.70
2017-09-03T10:01:26.846Z,71.10
2017-09-03T10:03:56.277Z,71.20
2017-09-03T10:06:25.738Z,70.20
2017-09-03T10:08:55.154Z,70.10
2017-09-03T10:11:24.547Z,70.40
2017-09-03T10:13:53.991Z,70.20
2017-09-03T10:16:23.738Z,71.40
2017-09-03T10:18:53.372Z,71.10
2017-09-03T10:21:22.771Z,70.30
2017-09-03T10:23:52.013Z,70.20
2017-09-03T10:26:21.421Z,70.20
2017-09-03T10:28:50.836Z,68.30
2017-09-03T10:31:20.234Z,67.00
2017-09-03T10:33:49.643Z,66.90
2017-09-03T10:36:19.057Z,67.40
2017-09-03T10:38:48.487Z,66.60
2017-09-03T10:41:17.889Z,66.50
2017-09-03T10:43:47.307Z,66.50
2017-09-03T10:46:16.701Z,64.40
2017-09-03T10:48:46.101Z,63.20
2017-09-03T10:51:15.499Z,65.20
2017-09-03T10:53:44.761Z,65.60
2017-09-03T10:56:14.281Z,66.40
2017-09-03T10:58:43.692Z,66.60
2017-09-03T11:01:13.131Z,66.30
2017-09-03T11:03:42.542Z,65.60
2017-09-03T11:06:11.943Z,64.80
2017-09-03T11:08:41.359Z,65.50
2017-09-03T11:11:10.754Z,67.20
2017-09-03T11:13:40.195Z,68.50
2017-09-03T11:16:09.581Z,69.60
2017-09-03T11:18:39.039Z,69.90
2017-09-03T11:21:08.454Z,70.20
2017-09-03T11:23:37.847Z,70.10
2017-09-03T11:26:07.251Z,70.40
2017-09-03T11:28:36.633Z,70.80
2017-09-03T11:31:06.037Z,71.00
2017-09-03T11:33:35.428Z,68.60
2017-09-03T11:36:04.836Z,65.90
2017-09-03T11:38:34.209Z,63.30
2017-09-03T11:41:03.631Z,61.60
2017-09-03T11:43:33.026Z,60.30
2017-09-03T11:46:02.421Z,59.40
2017-09-03T11:48:31.816Z,58.90
2017-09-03T11:51:01.209Z,58.00
2017-09-03T11:53:30.606Z,56.40
2017-09-03T11:56:00.032Z,55.20
2017-09-03T11:58:29.419Z,54.40
2017-09-03T12:00:58.833Z,51.30
2017-09-03T12:03:28.233Z,50.90
2017-09-03T12:05:57.612Z,51.70
2017-09-03T12:08:27.015Z,53.00
2017-09-03T12:10:56.421Z,52.30
2017-09-03T12:13:25.802Z,53.90
2017-09-03T12:15:55.206Z,55.30
2017-09-03T12:18:24.402Z,56.20
2017-09-03T12:20:53.824Z,59.40
2017-09-03T12:23:23.220Z,61.20
2017-09-03T12:25:52.614Z,59.40
2017-09-03T12:28:22.047Z,57.20
2017-09-03T12:30:51.447Z,54.50
2017-09-03T12:33:20.868Z,52.20
2017-09-03T12:35:50.261Z,49.30
2017-09-03T12:38:19.691Z,49.10
2017-09-03T12:40:49.074Z,47.50
2017-09-03T12:43:18.479Z,47.20
2017-09-03T12:45:47.871Z,46.70
2017-09-03T12:48:17.305Z,45.50
2017-09-03T12:50:46.714Z,46.50
2017-09-03T12:53:16.115Z,49.00
2017-09-03T12:55:45.517Z,51.40
2017-09-03T12:58:14.938Z,54.40
2017-09-03T13:00:44.304Z,56.20
2017-09-03T13:03:13.527Z,57.80
2017-09-03T13:05:42.926Z,58.00
2017-09-03T13:08:12.343Z,59.20
2017-09-03T13:10:41.549Z,62.50
2017-09-03T13:13:10.944Z,64.90
2017-09-03T13:15:40.321Z,65.40
2017-09-03T13:18:09.551Z,67.50
2017-09-03T13:20:38.771Z,68.40
2017-09-03T13:23:08.174Z,70.00
2017-09-03T13:25:37.410Z,78.30
2017-09-03T13:28:06.843Z,77.20
2017-09-03T13:30:36.249Z,74.30
2017-09-03T13:33:05.664Z,78.40
2017-09-03T13:35:34.916Z,80.90
2017-09-03T13:38:04.320Z,84.40
2017-09-03T13:40:33.734Z,86.40
2017-09-03T13:43:03.138Z,89.10
2017-09-03T13:45:32.564Z,90.90
2017-09-03T13:48:02.185Z,90.50
2017-09-03T13:50:31.640Z,93.00
2017-09-03T13:53:01.044Z,91.60
2017-09-03T13:55:30.482Z,91.90
2017-09-03T13:57:59.917Z,92.10
2017-09-03T14:00:29.792Z,89.10
2017-09-03T14:02:59.048Z,88.10
2017-09-03T14:05:28.437Z,88.00
2017-09-03T14:07:57.850Z,90.40
2017-09-03T14:10:27.268Z,90.10
2017-09-03T14:12:56.662Z,87.00
2017-09-03T14:15:26.088Z,87.40
2017-09-03T14:17:55.465Z,84.50
2017-09-03T14:20:24.876Z,85.90
2017-09-03T14:22:54.104Z,81.20
2017-09-03T14:25:23.509Z,75.20
2017-09-03T14:27:52.915Z,72.90
2017-09-03T14:30:22.320Z,77.60
2017-09-03T14:32:52.487Z,75.50
2017-09-03T14:35:21.907Z,75.50
2017-09-03T14:37:51.315Z,75.50
2017-09-03T14:40:20.714Z,73.50
2017-09-03T14:42:50.115Z,72.80
2017-09-03T14:45:19.522Z,76.40
2017-09-03T14:47:48.732Z,73.70
2017-09-03T14:50:18.133Z,65.40
2017-09-03T14:52:47.582Z,64.80
2017-09-03T14:55:16.999Z,64.20
2017-09-03T14:57:46.401Z,66.30
2017-09-03T15:00:15.813Z,68.70
2017-09-03T15:02:45.031Z,74.00
2017-09-03T15:05:14.498Z,75.00
2017-09-03T15:07:43.903Z,68.00
2017-09-03T15:10:13.313Z,65.00
2017-09-03T15:12:42.746Z,67.20
2017-09-03T15:15:12.208Z,66.90
2017-09-03T15:17:41.606Z,65.40
2017-09-03T15:20:11.050Z,67.10
2017-09-03T15:22:40.262Z,67.00
2017-09-03T15:25:09.687Z,67.40
2017-09-03T15:27:39.095Z,65.80
2017-09-03T15:30:08.498Z,65.30
2017-09-03T15:32:37.902Z,63.50
2017-09-03T15:35:07.289Z,67.50
2017-09-03T15:37:36.694Z,68.30
2017-09-03T15:40:06.118Z,69.30
2017-09-03T15:42:35.524Z,69.40
2017-09-03T15:45:05.148Z,69.80
2017-09-03T15:47:34.566Z,67.60
2017-09-03T15:50:03.984Z,65.20
2017-09-03T15:52:33.383Z,65.20
2017-09-03T15:55:02.589Z,66.40
2017-09-03T15:57:32.044Z,66.40
2017-09-03T16:00:01.508Z,65.00
2017-09-03T16:02:30.642Z,67.20
2017-09-03T16:05:00.043Z,67.10
2017-09-03T16:07:29.453Z,67.20
2017-09-03T16:09:58.871Z,68.30
2017-09-03T16:12:28.098Z,68.50
2017-09-03T16:14:57.503Z,67.50
2017-09-03T16:17:26.974Z,69.70
2017-09-03T16:19:56.406Z,69.20
2017-09-03T16:22:25.815Z,69.40
2017-09-03T16:24:55.440Z,70.10
2017-09-03T16:27:24.855Z,69.80
2017-09-03T16:29:54.290Z,70.40
2017-09-03T16:32:23.710Z,69.70
2017-09-03T16:34:52.933Z,70.70
2017-09-03T16:37:22.352Z,70.80
2017-09-03T16:39:51.794Z,73.10
2017-09-03T16:42:21.221Z,74.10
2017-09-03T16:44:50.620Z,75.00
2017-09-03T16:47:19.864Z,75.50
2017-09-03T16:49:49.065Z,74.40
2017-09-03T16:52:28.461Z,74.60
2017-09-03T16:54:57.668Z,73.80
2017-09-03T16:57:27.139Z,77.90
2017-09-03T16:59:56.352Z,79.40
2017-09-03T17:02:25.579Z,80.30
2017-09-03T17:04:55.578Z,84.50
2017-09-03T17:07:25.075Z,84.40
2017-09-03T17:09:54.572Z,88.40
2017-09-03T17:12:24.196Z,90.90
2017-09-03T17:14:53.683Z,91.90
2017-09-03T17:17:23.190Z,93.40
2017-09-03T17:19:55.120Z,94.10
2017-09-03T17:22:24.631Z,95.30
2017-09-03T17:24:54.122Z,95.70
2017-09-03T17:27:23.483Z,97.00
2017-09-03T17:29:53.000Z,98.60
2017-09-03T17:32:22.485Z,99.30
2017-09-03T17:34:55.459Z,99.90
2017-09-03T17:37:25.731Z,99.90
2017-09-03T17:39:59.844Z,99.90
2017-09-03T17:42:39.273Z,99.90
2017-09-03T17:45:08.740Z,99.90
2017-09-03T17:47:38.310Z,99.90
2017-09-03T17:50:07.804Z,99.90
2017-09-03T17:52:37.125Z,99.90
2017-09-03T17:55:06.787Z,99.90
2017-09-03T17:57:36.281Z,99.90
2017-09-03T18:00:05.769Z,99.90
2017-09-03T18:02:35.060Z,99.90
2017-09-03T18:05:06.970Z,99.90
2017-09-03T18:07:36.438Z,99.90
2017-09-03T18:10:05.940Z,99.90
2017-09-03T18:12:35.676Z,99.90
2017-09-03T18:15:05.176Z,99.90
2017-09-03T18:17:34.944Z,99.90
2017-09-03T18:20:04.471Z,99.90
2017-09-03T18:22:33.953Z,99.90
2017-09-03T18:25:03.438Z,99.90
2017-09-03T18:27:32.912Z,99.90
2017-09-03T18:30:06.444Z,99.90
2017-09-03T18:32:35.944Z,99.90
2017-09-03T18:35:05.439Z,99.90
2017-09-03T18:37:38.358Z,99.90
2017-09-03T18:40:14.429Z,99.90
2017-09-03T18:42:44.324Z,99.90
2017-09-03T18:45:13.818Z,99.90
2017-09-03T18:47:43.333Z,99.90
2017-09-03T18:50:14.835Z,99.90
2017-09-03T18:52:49.947Z,99.90
2017-09-03T18:55:19.455Z,99.90
2017-09-03T18:57:49.351Z,99.90
2017-09-03T19:00:19.697Z,99.90
2017-09-03T19:02:52.013Z,99.90
2017-09-03T19:08:24.399Z,99.90
2017-09-03T19:10:53.883Z,99.90
2017-09-03T19:13:23.389Z,99.90
2017-09-03T19:15:52.971Z,99.90
2017-09-03T19:18:22.442Z,99.90
2017-09-03T19:20:51.932Z,99.90
2017-09-03T19:23:21.413Z,99.90
2017-09-03T19:25:50.931Z,99.90
2017-09-03T19:28:20.405Z,99.90
2017-09-03T19:30:49.895Z,99.90
2017-09-03T19:33:19.360Z,99.90
2017-09-03T19:35:48.829Z,99.90
2017-09-03T19:38:21.903Z,99.90
2017-09-03T19:40:51.128Z,99.90
2017-09-03T19:43:20.811Z,99.90
2017-09-03T19:45:50.555Z,99.90
2017-09-03T19:48:20.357Z,99.90
2017-09-03T19:50:50.195Z,99.90
2017-09-03T19:53:19.866Z,99.90
2017-09-03T19:55:49.564Z,99.90
2017-09-03T19:58:19.214Z,99.90
2017-09-03T20:00:48.897Z,99.90
2017-09-03T20:03:18.571Z,99.90
2017-09-03T20:05:48.289Z,99.90
2017-09-03T20:08:17.951Z,99.90
2017-09-03T20:10:47.695Z,99.90
2017-09-03T20:13:17.367Z,99.90
2017-09-03T20:15:47.168Z,99.90
2017-09-03T20:18:16.854Z,99.90
2017-09-03T20:20:46.553Z,99.90
2017-09-03T20:23:16.245Z,99.90
2017-09-03T20:25:45.922Z,99.90
2017-09-03T20:28:15.640Z,99.90
2017-09-03T20:30:45.345Z,99.90
2017-09-03T20:33:15.027Z,99.90
2017-09-03T20:35:44.727Z,99.90
2017-09-03T20:38:14.419Z,99.90
2017-09-03T20:40:44.146Z,99.90
2017-09-03T20:43:13.635Z,99.90
2017-09-03T20:45:43.308Z,99.90
2017-09-03T20:48:13.047Z,99.90
2017-09-03T20:50:42.721Z,99.90
2017-09-03T20:53:12.453Z,99.90
2017-09-03T20:55:42.143Z,99.90
2017-09-03T20:58:11.806Z,99.90
2017-09-03T21:00:41.485Z,99.90
2017-09-03T21:03:10.957Z,99.90
2017-09-03T21:05:40.465Z,99.90
2017-09-03T21:08:09.951Z,99.90
2017-09-03T21:10:39.640Z,99.90
2017-09-03T21:13:09.650Z,99.90
2017-09-03T21:15:39.345Z,99.90
2017-09-03T21:18:09.080Z,99.90
2017-09-03T21:20:38.774Z,99.90
2017-09-03T21:23:08.580Z,99.90
2017-09-03T21:25:38.373Z,99.90
2017-09-03T21:28:08.060Z,99.90
2017-09-03T21:30:37.720Z,99.90
2017-09-03T21:33:07.522Z,99.90
2017-09-03T21:35:37.346Z,99.90
2017-09-03T21:38:06.991Z,99.90
2017-09-03T21:40:36.684Z,99.90
2017-09-03T21:43:06.371Z,99.90
2017-09-03T21:45:36.075Z,99.90
2017-09-03T21:48:05.764Z,99.90
2017-09-03T21:50:35.425Z,99.90
2017-09-03T21:53:05.102Z,99.90
2017-09-03T21:55:34.774Z,99.90
2017-09-03T21:58:04.427Z,99.90
2017-09-03T22:00:34.099Z,99.90
2017-09-03T22:03:03.547Z,99.90
2017-09-03T22:05:33.221Z,99.90
2017-09-03T22:08:02.904Z,99.90
2017-09-03T22:10:32.594Z,99.90
2017-09-03T22:13:02.263Z,99.90
2017-09-03T22:15:31.950Z,99.90
2017-09-03T22:18:01.602Z,99.90
2017-09-03T22:20:31.290Z,99.90
2017-09-03T22:23:00.953Z,99.90
2017-09-03T22:25:30.642Z,99.90
2017-09-03T22:28:00.142Z,99.90
2017-09-03T22:30:29.810Z,99.90
2017-09-03T22:32:59.487Z,99.90
2017-09-03T22:35:29.139Z,99.90
2017-09-03T22:37:58.844Z,99.90
2017-09-03T22:40:28.520Z,99.90
2017-09-03T22:42:58.182Z,99.90
2017-09-03T22:45:27.829Z,99.90
2017-09-03T22:47:57.546Z,99.90
2017-09-03T22:50:27.218Z,99.90
2017-09-03T22:52:56.911Z,99.90
2017-09-03T22:55:26.573Z,99.90
2017-09-03T22:57:56.257Z,99.90
2017-09-03T23:00:25.928Z,99.90
2017-09-03T23:02:55.453Z,99.90
2017-09-03T23:05:25.136Z,99.90
2017-09-03T23:07:54.605Z,99.90
2017-09-03T23:10:24.534Z,99.90
2017-09-03T23:12:54.220Z,99.90
2017-09-03T23:15:23.911Z,99.90
2017-09-03T23:17:53.603Z,99.90
2017-09-03T23:20:23.105Z,99.90
2017-09-03T23:22:52.766Z,99.90
2017-09-03T23:25:22.439Z,99.90
2017-09-03T23:27:52.350Z,99.90
2017-09-03T23:30:22.072Z,99.90
2017-09-03T23:32:51.545Z,99.90
2017-09-03T23:35:21.222Z,99.90
2017-09-03T23:37:50.988Z,99.90
2017-09-03T23:40:20.694Z,99.90
2017-09-03T23:42:50.415Z,99.90
2017-09-03T23:45:20.067Z,99.90
2017-09-03T23:47:49.748Z,99.90
2017-09-03T23:50:19.572Z,99.90
2017-09-03T23:52:49.248Z,99.90
2017-09-03T23:55:18.899Z,99.90
2017-09-03T23:57:48.685Z,99.90
